Time;durP1;ratioP1;P1;durP2;ratioP2;P2;SDS_P1;SDS_P2;PMS_P1;PMS_P2;Temp;Humidity;BMP_temperature;BMP_pressure;BME280_temperature;BME280_humidity;BME280_pressure;Samples;Min_cycle;Max_cycle;Signal;HPM_P1;HPM_P2
2022/01/16 00:04:54;;;;;;;3.33;1.73;;;;;;;-145.06;0.00;60892.56;4850533;28;20034;-86
2022/01/16 00:07:33;;;;;;;3.57;2.30;;;;;;;-145.06;0.00;60892.56;4856689;28;20272;-86
2022/01/16 00:10:12;;;;;;;3.13;2.30;;;;;;;-145.06;0.00;60892.56;4846018;28;20045;-86
2022/01/16 00:12:52;;;;;;;3.20;2.17;;;;;;;-145.06;0.00;60892.56;4847281;28;20108;-87
2022/01/16 00:15:32;;;;;;;2.38;1.70;;;;;;;-145.06;0.00;60892.56;4853127;28;20038;-85
2022/01/16 00:18:21;;;;;;;2.87;1.93;;;;;;;-145.06;0.00;60892.56;4867228;28;20033;-86
2022/01/16 00:21:00;;;;;;;1.88;1.55;;;;;;;-145.06;0.00;60892.56;4845678;28;20269;-86
2022/01/16 00:23:39;;;;;;;2.28;1.67;;;;;;;-145.06;0.00;60892.56;4852801;28;20116;-87
2022/01/16 00:26:20;;;;;;;;;;;;;;;-145.06;0.00;60892.56;4854690;28;20037;-86
2022/01/16 00:28:59;;;;;;;2.00;1.48;;;;;;;-145.06;0.00;60892.56;4853969;28;19913;-86
2022/01/16 00:31:39;;;;;;;1.83;1.53;;;;;;;-145.06;0.00;60892.56;4854019;28;20029;-86
2022/01/16 00:34:18;;;;;;;2.00;1.63;;;;;;;-145.06;0.00;60892.56;4853787;28;20280;-87
2022/01/16 00:36:57;;;;;;;2.03;1.65;;;;;;;-145.06;0.00;60892.56;4870781;28;20033;-88
2022/01/16 00:39:36;;;;;;;2.40;1.77;;;;;;;-145.06;0.00;60892.56;4846722;28;20033;-86
2022/01/16 00:42:15;;;;;;;2.13;1.70;;;;;;;-145.06;0.00;60892.56;4866778;28;20696;-85
2022/01/16 00:44:54;;;;;;;2.50;1.85;;;;;;;-145.06;0.00;60892.56;4849170;28;20037;-87
2022/01/16 00:47:32;;;;;;;2.20;1.60;;;;;;;-145.06;0.00;60892.56;4849185;28;20415;-87
2022/01/16 00:50:11;;;;;;;2.50;1.83;;;;;;;-145.06;0.00;60892.56;4849942;28;20488;-87
2022/01/16 00:52:50;;;;;;;4.20;2.43;;;;;;;-145.06;0.00;60892.56;4851129;28;20268;-84
2022/01/16 00:55:30;;;;;;;2.88;1.90;;;;;;;-145.06;0.00;60892.56;4852523;28;20327;-86
2022/01/16 00:58:09;;;;;;;2.13;1.77;;;;;;;-145.06;0.00;60892.56;4853720;28;20033;-87
2022/01/16 01:00:49;;;;;;;2.47;1.85;;;;;;;-145.06;0.00;60892.56;4880493;28;20041;-87
2022/01/16 01:03:29;;;;;;;2.60;1.98;;;;;;;-145.06;0.00;60892.56;4852878;28;20060;-86
2022/01/16 01:06:08;;;;;;;2.22;1.75;;;;;;;-145.06;0.00;60892.56;4853453;28;20491;-87
2022/01/16 01:08:47;;;;;;;2.65;1.58;;;;;;;-145.06;0.00;60892.56;4854031;28;20021;-86
2022/01/16 01:11:29;;;;;;;2.40;1.70;;;;;;;-145.06;0.00;60892.56;4848498;28;20033;-87
2022/01/16 01:14:16;;;;;;;;;;;;;;;;;;;;;
2022/01/16 01:16:55;;;;;;;2.28;1.67;;;;;;;-145.06;0.00;60892.56;4854802;28;20116;-86
2022/01/16 01:19:35;;;;;;;2.05;1.55;;;;;;;-145.06;0.00;60892.56;4852868;28;20380;-86
2022/01/16 01:22:13;;;;;;;2.08;1.77;;;;;;;-145.06;0.00;60892.56;4852022;28;20117;-86
2022/01/16 01:24:52;;;;;;;2.13;1.47;;;;;;;-145.06;0.00;60892.56;4850084;28;20041;-87
2022/01/16 01:27:33;;;;;;;2.15;1.70;;;;;;;-145.06;0.00;60892.56;4851477;28;20041;-86
2022/01/16 01:30:15;;;;;;;2.22;1.15;;;;;;;2.73;0.00;60892.56;4853537;28;20119;-85
2022/01/16 01:32:56;;;;;;;2.08;1.80;;;;;;;-145.06;0.00;60892.56;4850309;28;20029;-86
2022/01/16 01:35:38;;;;;;;2.65;2.05;;;;;;;-145.06;0.00;60892.56;4852988;28;20033;-86
2022/01/16 01:38:20;;;;;;;2.72;1.90;;;;;;;-145.06;0.00;60892.56;4859360;28;20140;-86
2022/01/16 01:40:59;;;;;;;2.40;1.73;;;;;;;-145.06;0.00;60892.56;4854251;28;20041;-86
2022/01/16 01:52:13;;;;;;;3.92;2.63;;;;;;;-145.06;0.00;60892.56;4856703;28;20041;-86
2022/01/16 01:54:52;;;;;;;5.00;3.17;;;;;;;-145.06;0.00;60892.56;4855667;28;20704;-87
2022/01/16 01:57:31;;;;;;;6.65;4.00;;;;;;;-145.06;0.00;60892.56;4855355;28;20375;-85
2022/01/16 02:00:17;;;;;;;6.97;3.92;;;;;;;-145.06;0.00;60892.56;4854546;28;20105;-86
2022/01/16 02:03:13;;;;;;;12.70;6.82;;;;;;;-145.06;0.00;60892.56;4851924;28;20037;-86
2022/01/16 02:05:53;;;;;;;9.45;6.15;;;;;;;-145.06;0.00;60892.56;4852477;28;20041;-85
2022/01/16 02:08:35;;;;;;;12.45;7.22;;;;;;;-145.06;0.00;60892.56;4857116;28;20056;-86
2022/01/16 02:11:15;;;;;;;15.13;7.80;;;;;;;-145.06;0.00;60892.56;4856127;28;20037;-88
2022/01/16 02:14:24;;;;;;;13.75;6.95;;;;;;;-145.06;0.00;60892.56;4868865;28;20033;-85
2022/01/16 02:32:25;;;;;;;11.80;6.72;;;;;;;-145.06;0.00;60892.56;4853012;28;20038;-86
2022/01/16 02:34:56;;;;;;;11.40;6.55;;;;;;;-145.06;0.00;60892.56;4852963;28;20025;-86
2022/01/16 02:37:36;;;;;;;9.52;5.68;;;;;;;-145.06;0.00;60892.56;4860255;28;20025;-86
2022/01/16 02:40:20;;;;;;;10.30;6.47;;;;;;;-145.06;0.00;60892.56;4847729;28;20037;-86
2022/01/16 02:42:59;;;;;;;11.10;6.03;;;;;;;-145.06;0.00;60892.56;4852358;28;20388;-85
2022/01/16 02:45:44;;;;;;;11.17;6.20;;;;;;;-145.06;0.00;60892.56;4853293;28;20475;-85
2022/01/16 02:48:24;;;;;;;10.95;6.13;;;;;;;-145.06;0.00;60892.56;4846764;28;20033;-86
2022/01/16 02:51:03;;;;;;;10.25;6.18;;;;;;;-145.06;0.00;60892.56;4853963;28;20037;-85
2022/01/16 02:53:43;;;;;;;12.63;6.70;;;;;;;-145.06;0.00;60892.56;4848359;28;20038;-86
2022/01/16 02:56:22;;;;;;;;;;;;;;;-145.06;0.00;60892.56;4856376;28;20495;-87
2022/01/16 02:59:01;;;;;;;12.68;6.75;;;;;;;-145.06;0.00;60892.56;4855892;28;19909;-87
2022/01/16 03:01:41;;;;;;;11.90;7.03;;;;;;;-145.06;0.00;60892.56;4855535;28;20495;-85
2022/01/16 03:04:20;;;;;;;15.10;8.48;;;;;;;-145.06;0.00;60892.56;4853238;28;20280;-84
2022/01/16 03:07:01;;;;;;;17.30;8.90;;;;;;;-145.06;0.00;60892.56;4860989;28;20037;-86
2022/01/16 03:12:55;;;;;;;22.45;12.50;;;;;;;-145.06;0.00;60892.56;4842004;28;20026;-85
2022/01/16 03:15:36;;;;;;;23.67;12.65;;;;;;;-145.06;0.00;60892.56;4847411;28;20169;-87
2022/01/16 03:23:52;;;;;;;22.05;12.32;;;;;;;-145.06;0.00;60892.56;4853913;28;20505;-86
2022/01/16 03:26:31;;;;;;;20.93;12.20;;;;;;;-145.06;0.00;60892.56;4854248;28;20033;-86
2022/01/16 03:29:10;;;;;;;18.30;10.63;;;;;;;-145.06;0.00;60892.56;4865093;28;20491;-87
2022/01/16 03:31:50;;;;;;;18.98;11.38;;;;;;;-145.06;0.00;60892.56;4854151;28;20279;-85
2022/01/16 03:34:29;;;;;;;20.52;10.95;;;;;;;-145.06;0.00;60892.56;4854809;28;20034;-86
2022/01/16 03:37:08;;;;;;;18.13;10.48;;;;;;;-145.06;0.00;60892.56;4853584;28;20041;-85
2022/01/16 03:39:48;;;;;;;20.38;11.45;;;;;;;-145.06;0.00;60892.56;4851387;28;20029;-87
2022/01/16 03:42:30;;;;;;;21.83;11.73;;;;;;;-145.06;0.00;60892.56;4849250;28;20022;-86
2022/01/16 03:45:12;;;;;;;19.02;10.32;;;;;;;-145.06;0.00;60892.56;4852569;28;20116;-87
2022/01/16 03:47:51;;;;;;;21.27;11.38;;;;;;;-145.06;0.00;60892.56;4847401;28;20042;-86
2022/01/16 03:50:30;;;;;;;21.70;12.98;;;;;;;3.86;0.00;60892.56;4867375;28;21402;-87
2022/01/16 03:53:09;;;;;;;20.27;11.63;;;;;;;-145.06;0.00;60892.56;4854112;28;21853;-87
2022/01/16 03:55:48;;;;;;;22.35;13.02;;;;;;;-145.06;0.00;60892.56;4852977;28;20676;-87
2022/01/16 03:58:27;;;;;;;25.30;14.38;;;;;;;21.08;0.00;60892.56;4849872;28;20147;-86
2022/01/16 04:01:06;;;;;;;25.50;13.32;;;;;;;10.68;0.00;60892.56;4847731;28;20025;-86
2022/01/16 04:03:45;;;;;;;20.60;11.27;;;;;;;-145.06;0.00;60892.56;4845089;28;20033;-87
2022/01/16 04:06:25;;;;;;;19.35;10.68;;;;;;;10.68;0.00;60892.56;4855213;28;20033;-85
2022/01/16 04:09:04;;;;;;;18.10;10.38;;;;;;;-145.06;0.00;60892.56;4846966;28;20041;-85
2022/01/16 04:11:50;;;;;;;18.77;9.93;;;;;;;-145.06;0.00;60892.56;4847780;28;20108;-86
2022/01/16 04:17:24;;;;;;;22.35;12.88;;;;;;;4.19;0.00;60892.56;4851520;28;20034;-87
2022/01/16 04:20:04;;;;;;;24.65;12.32;;;;;;;-145.06;0.00;60892.56;4857092;28;20029;-87
2022/01/16 04:22:45;;;;;;;22.63;12.57;;;;;;;-145.06;0.00;60892.56;4851579;28;20029;-86
2022/01/16 04:25:24;;;;;;;29.58;14.43;;;;;;;187.52;0.00;60892.56;4848239;28;20655;-86
2022/01/16 04:28:04;;;;;;;27.15;14.13;;;;;;;-145.06;0.00;60892.56;4852877;28;20029;-85
2022/01/16 04:30:44;;;;;;;31.77;16.00;;;;;;;-145.06;0.00;60892.56;4867383;28;20034;-87
2022/01/16 04:33:23;;;;;;;28.15;15.55;;;;;;;-145.06;0.00;60892.56;4850316;28;20034;-87
2022/01/16 04:36:03;;;;;;;26.33;14.10;;;;;;;-145.06;0.00;60892.56;4852513;28;20081;-86
2022/01/16 04:38:48;;;;;;;25.25;13.70;;;;;;;-145.06;0.00;60892.56;4861326;28;20380;-87
2022/01/16 04:44:26;;;;;;;33.83;17.90;;;;;;;-145.06;0.00;60892.56;4849034;28;20038;-85
2022/01/16 04:47:05;;;;;;;;;;;;;;;-145.06;0.00;60892.56;4851665;28;20025;-87
2022/01/16 04:49:44;;;;;;;33.03;16.88;;;;;;;21.08;0.00;60892.56;4848311;28;20363;-86
2022/01/16 04:52:23;;;;;;;31.95;17.27;;;;;;;5.49;0.00;60892.56;4853147;28;20705;-86
2022/01/16 04:55:02;;;;;;;27.55;14.80;;;;;;;5.49;0.00;60892.56;4851938;28;20029;-87
2022/01/16 04:57:42;;;;;;;26.35;15.25;;;;;;;-145.06;0.00;60892.56;4852398;28;20029;-87
2022/01/16 05:00:21;;;;;;;25.35;14.05;;;;;;;-145.06;0.00;60892.56;4852208;28;20108;-88
2022/01/16 05:03:00;;;;;;;23.98;13.20;;;;;;;187.52;0.00;60892.56;4849738;28;20049;-87
2022/01/16 05:05:39;;;;;;;21.80;12.63;;;;;;;-145.06;0.00;60892.56;4844919;28;20089;-86
2022/01/16 05:08:18;;;;;;;20.58;11.25;;;;;;;-145.06;0.00;60892.56;4854507;28;20037;-86
2022/01/16 05:10:58;;;;;;;22.40;12.68;;;;;;;10.68;0.00;60892.56;4849816;28;20030;-87
2022/01/16 05:16:37;;;;;;;24.95;13.82;;;;;;;-145.06;0.00;60892.56;4858339;28;20479;-87
2022/01/16 05:19:17;;;;;;;26.10;14.63;;;;;;;3.94;0.00;60892.56;4852830;28;20042;-86
2022/01/16 05:21:55;;;;;;;26.25;14.98;;;;;;;-145.06;0.00;60892.56;4846641;28;20099;-87
2022/01/16 05:24:35;;;;;;;25.00;14.13;;;;;;;-145.06;0.00;60892.56;4852718;28;20042;-87
2022/01/16 05:27:14;;;;;;;24.08;13.40;;;;;;;4.03;0.00;60892.56;4855911;28;20033;-86
2022/01/16 05:29:53;;;;;;;21.33;12.33;;;;;;;-145.06;0.00;60892.56;4857487;28;20033;-87
2022/01/16 05:32:32;;;;;;;27.90;15.20;;;;;;;3.91;0.00;60892.56;4850017;28;20268;-87
2022/01/16 05:35:11;;;;;;;28.38;15.55;;;;;;;3.94;0.00;60892.56;4856174;28;20360;-88
2022/01/16 05:37:50;;;;;;;26.93;14.17;;;;;;;-145.06;0.00;60892.56;4878489;28;20046;-87
2022/01/16 05:40:29;;;;;;;23.02;13.88;;;;;;;-145.06;0.00;60892.56;4849863;28;20666;-87
2022/01/16 05:43:08;;;;;;;24.05;13.63;;;;;;;4.19;0.00;60892.56;4851761;28;20045;-87
2022/01/16 05:45:48;;;;;;;24.35;13.45;;;;;;;4.19;0.00;60892.56;4851543;28;20034;-86
2022/01/16 05:48:27;;;;;;;23.50;14.20;;;;;;;-145.06;0.00;60892.56;4856154;28;20029;-86
2022/01/16 05:51:08;;;;;;;24.20;15.02;;;;;;;21.08;0.00;60892.56;4856433;28;20750;-87
2022/01/16 05:53:50;;;;;;;23.42;14.18;;;;;;;-145.06;0.00;60892.56;4868719;28;20033;-87
2022/01/16 05:56:29;;;;;;;28.52;15.63;;;;;;;-145.06;0.00;60892.56;4844931;28;20033;-86
2022/01/16 05:59:08;;;;;;;26.27;15.80;;;;;;;-145.06;0.00;60892.56;4856092;28;20037;-86
2022/01/16 06:01:47;;;;;;;24.63;14.27;;;;;;;-145.06;0.00;60892.56;4846749;28;20034;-87
2022/01/16 06:04:26;;;;;;;22.55;13.25;;;;;;;4.19;0.00;60892.56;4848704;28;20115;-87
2022/01/16 06:07:06;;;;;;;22.33;12.98;;;;;;;-145.06;0.00;60892.56;4859826;28;20029;-86
2022/01/16 06:09:45;;;;;;;;;;;;;;;-145.06;0.00;60892.56;4854833;28;20479;-86
2022/01/16 06:12:24;;;;;;;23.25;13.35;;;;;;;-145.06;0.00;60892.56;4851016;28;19917;-87
2022/01/16 06:15:05;;;;;;;22.92;14.07;;;;;;;4.11;0.00;60892.56;4852678;28;20436;-87
2022/01/16 06:17:44;;;;;;;24.20;14.13;;;;;;;4.14;0.00;60892.56;4856846;28;20033;-87
2022/01/16 06:20:23;;;;;;;25.35;13.77;;;;;;;4.15;0.00;60892.56;4867970;28;20029;-87
2022/01/16 06:23:02;;;;;;;20.83;11.95;;;;;;;4.16;0.00;60892.56;4868342;28;20033;-87
2022/01/16 06:25:41;;;;;;;22.40;12.53;;;;;;;-145.06;0.00;60892.56;4843453;28;20471;-87
2022/01/16 06:28:22;;;;;;;19.75;11.23;;;;;;;-145.06;0.00;60892.56;4870293;28;20042;-87
2022/01/16 06:31:02;;;;;;;19.85;11.65;;;;;;;-145.06;0.00;60892.56;4856578;28;20033;-86
2022/01/16 06:33:40;;;;;;;22.95;12.68;;;;;;;-145.06;0.00;60892.56;4865794;28;20048;-87
2022/01/16 06:36:19;;;;;;;24.00;12.77;;;;;;;-145.06;0.00;60892.56;4876253;28;20193;-87
2022/01/16 06:38:58;;;;;;;21.27;12.47;;;;;;;-145.06;0.00;60892.56;4856801;28;20287;-86
2022/01/16 06:41:38;;;;;;;25.43;14.77;;;;;;;-145.06;0.00;60892.56;4869415;28;20268;-87
2022/01/16 06:44:17;;;;;;;26.15;14.95;;;;;;;-145.06;0.00;60892.56;4848451;28;20503;-86
2022/01/16 06:46:56;;;;;;;29.73;16.27;;;;;;;5.49;0.00;60892.56;4854879;28;20065;-88
2022/01/16 06:49:36;;;;;;;30.20;16.20;;;;;;;-145.06;0.00;60892.56;4855424;28;20742;-88
2022/01/16 06:52:15;;;;;;;29.63;16.67;;;;;;;-145.06;0.00;60892.56;4855796;28;20037;-87
2022/01/16 06:54:54;;;;;;;29.40;17.23;;;;;;;21.08;0.00;60892.56;4848631;28;20061;-86
2022/01/16 06:57:33;;;;;;;33.13;19.13;;;;;;;10.68;0.00;60892.56;4878741;28;20033;-87
2022/01/16 07:00:13;;;;;;;30.50;17.40;;;;;;;10.68;0.00;60892.56;4852086;28;20041;-87
2022/01/16 07:02:52;;;;;;;30.65;17.65;;;;;;;-145.06;0.00;60892.56;4854201;28;20029;-87
2022/01/16 07:05:31;;;;;;;33.03;19.43;;;;;;;187.52;0.00;60892.56;4863019;28;20116;-87
2022/01/16 07:08:10;;;;;;;31.00;18.13;;;;;;;21.08;0.00;60892.56;4851716;28;20359;-86
2022/01/16 07:10:50;;;;;;;25.80;15.40;;;;;;;-145.06;0.00;60892.56;4845291;28;20128;-87
2022/01/16 07:13:29;;;;;;;23.95;14.60;;;;;;;21.08;0.00;60892.56;4852482;28;20021;-87
2022/01/16 07:16:08;;;;;;;23.87;14.63;;;;;;;5.49;0.00;60892.56;4850531;28;20119;-87
2022/01/16 07:18:48;;;;;;;32.40;18.70;;;;;;;4.29;0.00;60892.56;4853014;28;20033;-86
2022/01/16 07:21:27;;;;;;;36.65;20.85;;;;;;;-145.06;0.00;60892.56;4854943;28;20572;-87
2022/01/16 07:24:06;;;;;;;34.60;20.83;;;;;;;-145.06;0.00;60892.56;4880395;28;20527;-87
2022/01/16 07:26:45;;;;;;;33.72;19.33;;;;;;;-145.06;0.00;60892.56;4853834;28;20372;-87
2022/01/16 07:29:24;;;;;;;38.53;21.63;;;;;;;-145.06;0.00;60892.56;4855255;28;20134;-87
2022/01/16 07:32:03;;;;;;;29.92;17.90;;;;;;;-145.06;0.00;60892.56;4868663;28;20495;-87
2022/01/16 07:34:43;;;;;;;28.17;17.02;;;;;;;-145.06;0.00;60892.56;4848159;28;20052;-86
2022/01/16 07:37:22;;;;;;;30.13;16.98;;;;;;;-145.06;0.00;60892.56;4855139;28;20033;-86
2022/01/16 07:40:01;;;;;;;33.53;19.92;;;;;;;187.52;0.00;60892.56;4854593;28;20037;-87
2022/01/16 07:42:40;;;;;;;30.30;17.85;;;;;;;10.68;0.00;60892.56;4841827;28;20601;-86
2022/01/16 07:45:20;;;;;;;35.72;19.08;;;;;;;-145.06;0.00;60892.56;4850986;28;20368;-87
2022/01/16 07:47:59;;;;;;;35.72;18.58;;;;;;;-145.06;0.00;60892.56;4880552;28;20037;-88
2022/01/16 07:50:39;;;;;;;32.10;18.65;;;;;;;-145.06;0.00;60892.56;4849404;28;20618;-87
2022/01/16 07:53:18;;;;;;;29.63;16.20;;;;;;;-145.06;0.00;60892.56;4852220;28;20033;-86
2022/01/16 07:55:57;;;;;;;31.63;17.03;;;;;;;-145.06;0.00;60892.56;4847782;28;20033;-86
2022/01/16 07:58:36;;;;;;;33.37;17.57;;;;;;;-145.06;0.00;60892.56;4868594;28;22102;-88
2022/01/16 08:01:15;;;;;;;28.97;17.00;;;;;;;5.49;0.00;60892.56;4854837;28;20272;-85
2022/01/16 08:03:54;;;;;;;27.20;15.67;;;;;;;5.49;0.00;60892.56;4845432;28;20033;-86
2022/01/16 08:06:33;;;;;;;26.13;15.32;;;;;;;-145.06;0.00;60892.56;4866339;28;20265;-88
2022/01/16 08:09:12;;;;;;;33.35;18.67;;;;;;;4.39;0.00;60892.56;4869623;28;20116;-88
2022/01/16 08:11:51;;;;;;;28.20;16.33;;;;;;;-145.06;0.00;60892.56;4854344;28;20045;-88
2022/01/16 08:14:31;;;;;;;30.70;16.30;;;;;;;10.68;0.00;60892.56;4852427;28;20033;-87
2022/01/16 08:17:10;;;;;;;34.28;19.15;;;;;;;-145.06;0.00;60892.56;4845346;28;20025;-87
2022/01/16 08:19:49;;;;;;;37.70;20.40;;;;;;;-145.06;0.00;60892.56;4851300;28;20752;-87
2022/01/16 08:22:28;;;;;;;31.57;16.87;;;;;;;4.37;0.00;60892.56;4849976;28;20064;-87
2022/01/16 08:25:07;;;;;;;31.97;17.63;;;;;;;-145.06;0.00;60892.56;4847527;28;20758;-86
2022/01/16 08:27:46;;;;;;;;;;;;;;;-145.06;0.00;60892.56;4852638;28;20033;-87
2022/01/16 08:30:25;;;;;;;32.80;17.83;;;;;;;-145.06;0.00;60892.56;4860064;28;20255;-86
2022/01/16 08:33:04;;;;;;;34.13;18.10;;;;;;;-145.06;0.00;60892.56;4851917;28;20034;-86
2022/01/16 08:35:43;;;;;;;32.53;17.70;;;;;;;-145.06;0.00;60892.56;4867172;28;20690;-88
2022/01/16 08:38:23;;;;;;;33.42;18.13;;;;;;;-145.06;0.00;60892.56;4869891;28;20037;-89
2022/01/16 08:41:02;;;;;;;34.60;18.05;;;;;;;-145.06;0.00;60892.56;4851384;28;20037;-86
2022/01/16 08:43:42;;;;;;;30.55;16.42;;;;;;;-145.06;0.00;60892.56;4855758;28;20033;-87
2022/01/16 08:46:21;;;;;;;33.42;17.38;;;;;;;4.38;0.00;60892.56;4853253;28;20045;-89
2022/01/16 08:49:00;;;;;;;33.17;17.97;;;;;;;-145.06;0.00;60892.56;4855581;28;20033;-88
2022/01/16 08:51:40;;;;;;;;;;;;;;;-145.06;0.00;60892.56;4856903;28;20777;-89
2022/01/16 08:54:18;;;;;;;30.15;16.38;;;;;;;-145.06;0.00;60892.56;4849613;28;19949;-88
2022/01/16 08:56:57;;;;;;;31.43;17.87;;;;;;;-145.06;0.00;60892.56;4851079;28;20720;-89
2022/01/16 08:59:36;;;;;;;35.28;18.25;;;;;;;-145.06;0.00;60892.56;4852937;28;20029;-87
2022/01/16 09:02:15;;;;;;;33.40;17.90;;;;;;;-145.06;0.00;60892.56;4869981;28;20045;-87
2022/01/16 09:04:54;;;;;;;32.67;17.60;;;;;;;-145.06;0.00;60892.56;4854570;28;20029;-89
2022/01/16 09:07:33;;;;;;;29.93;16.40;;;;;;;5.49;0.00;60892.56;4871891;28;20773;-88
2022/01/16 09:10:12;;;;;;;27.50;15.02;;;;;;;10.68;0.00;60892.56;4867528;28;20557;-88
2022/01/16 09:12:51;;;;;;;26.03;14.30;;;;;;;21.08;0.00;60892.56;4880780;28;20041;-89
2022/01/16 09:15:30;;;;;;;24.47;13.27;;;;;;;-145.06;0.00;60892.56;4854227;28;20112;-89
2022/01/16 09:18:09;;;;;;;27.43;13.60;;;;;;;-145.06;0.00;60892.56;4850452;28;20037;-88
2022/01/16 09:20:48;;;;;;;26.42;13.48;;;;;;;-145.06;0.00;60892.56;4854882;28;20033;-88
2022/01/16 09:23:28;;;;;;;24.30;13.05;;;;;;;-145.06;0.00;60892.56;4856346;28;20025;-88
2022/01/16 09:26:08;;;;;;;22.60;12.25;;;;;;;-145.06;0.00;60892.56;4850625;28;20120;-87
2022/01/16 09:28:47;;;;;;;25.63;13.23;;;;;;;-145.06;0.00;60892.56;4859078;28;20025;-87
2022/01/16 09:31:26;;;;;;;26.10;13.77;;;;;;;-145.06;0.00;60892.56;4856873;28;20029;-88
2022/01/16 09:34:05;;;;;;;29.15;15.43;;;;;;;-145.06;0.00;60892.56;4849988;28;20577;-88
2022/01/16 09:36:44;;;;;;;28.73;14.75;;;;;;;-145.06;0.00;60892.56;4852970;28;20033;-88
2022/01/16 09:39:24;;;;;;;31.20;15.48;;;;;;;-145.06;0.00;60892.56;4855135;28;20034;-89
2022/01/16 09:42:05;;;;;;;30.92;15.77;;;;;;;-145.06;0.00;60892.56;4851082;28;20483;-89
2022/01/16 09:44:45;;;;;;;26.60;14.10;;;;;;;-145.06;0.00;60892.56;4847351;28;20385;-88
2022/01/16 09:47:24;;;;;;;29.67;14.88;;;;;;;-145.06;0.00;60892.56;4850923;28;20033;-89
2022/01/16 09:50:05;;;;;;;31.83;15.88;;;;;;;-145.06;0.00;60892.56;4854991;28;20116;-88
2022/01/16 09:52:45;;;;;;;33.25;17.13;;;;;;;-145.06;0.00;60892.56;4865803;28;20056;-89
2022/01/16 09:55:24;;;;;;;30.88;15.82;;;;;;;-145.06;0.00;60892.56;4860993;28;20037;-88
2022/01/16 09:58:04;;;;;;;26.98;15.23;;;;;;;-145.06;0.00;60892.56;4846352;28;20263;-89
2022/01/16 10:00:43;;;;;;;30.33;15.63;;;;;;;4.81;0.00;60892.56;4851008;28;20119;-89
2022/01/16 10:03:42;;;;;;;28.90;15.43;;;;;;;-145.06;0.00;60892.56;4855269;28;20037;-89
2022/01/16 10:06:24;;;;;;;33.65;16.20;;;;;;;-145.06;0.00;60892.56;4851878;28;20034;-87
2022/01/16 10:09:15;;;;;;;38.53;18.67;;;;;;;-145.06;0.00;60892.56;4866587;28;20041;-88
2022/01/16 10:12:02;;;;;;;32.42;17.23;;;;;;;-145.06;0.00;60892.56;4849392;28;20029;-88
2022/01/16 10:17:47;;;;;;;32.10;16.63;;;;;;;-145.06;0.00;60892.56;4848895;28;20037;-87
2022/01/16 10:20:27;;;;;;;32.63;16.50;;;;;;;-145.06;0.00;60892.56;4845751;28;20026;-88
2022/01/16 10:23:16;;;;;;;34.42;18.92;;;;;;;-145.06;0.00;60892.56;4848789;28;20369;-88
2022/01/16 10:25:54;;;;;;;35.08;17.77;;;;;;;5.16;0.00;60892.56;4847202;28;20033;-88
2022/01/16 10:28:33;;;;;;;30.50;16.58;;;;;;;-145.06;0.00;60892.56;4850597;28;20045;-88
2022/01/16 10:31:20;;;;;;;30.23;16.23;;;;;;;5.00;0.00;60892.56;4844493;28;21793;-88
2022/01/16 10:33:59;;;;;;;31.15;15.30;;;;;;;4.95;0.00;60892.56;4805723;28;1085908;-87
2022/01/16 10:36:38;;;;;;;31.27;16.00;;;;;;;-145.06;0.00;60892.56;4857222;28;20029;-88
2022/01/16 10:39:17;;;;;;;31.95;15.90;;;;;;;5.49;0.00;60892.56;4853484;28;20042;-88
2022/01/16 10:42:15;;;;;;;29.30;15.83;;;;;;;-145.06;0.00;60892.56;4853948;28;20570;-88
2022/01/16 10:45:12;;;;;;;28.85;15.50;;;;;;;-145.06;0.00;60892.56;4847545;28;20280;-87
2022/01/16 10:47:54;;;;;;;27.73;15.13;;;;;;;10.68;0.00;60892.56;4847487;28;20037;-88
2022/01/16 10:50:38;;;;;;;28.80;14.57;;;;;;;-145.06;0.00;60892.56;4849387;28;20743;-88
2022/01/16 10:53:22;;;;;;;25.10;13.05;;;;;;;-145.06;0.00;60892.56;4855833;28;20029;-88
2022/01/16 10:56:04;;;;;;;26.67;14.32;;;;;;;5.12;0.00;60892.56;4849475;28;20033;-88
2022/01/16 10:58:43;;;;;;;26.10;14.02;;;;;;;-145.06;0.00;60892.56;4852598;28;20029;-88
2022/01/16 11:01:22;;;;;;;23.10;13.30;;;;;;;-145.06;0.00;60892.56;4854653;28;20364;-88
2022/01/16 11:04:02;;;;;;;28.88;15.98;;;;;;;-145.06;0.00;60892.56;4851879;28;20455;-88
2022/01/16 11:06:41;;;;;;;27.23;15.52;;;;;;;-145.06;0.00;60892.56;4856436;28;20037;-88
2022/01/16 11:09:28;;;;;;;29.47;15.90;;;;;;;-145.06;0.00;60892.56;4861983;28;20061;-89
2022/01/16 11:12:07;;;;;;;31.52;16.88;;;;;;;-145.06;0.00;60892.56;4854933;28;20264;-88
2022/01/16 11:14:47;;;;;;;33.70;17.42;;;;;;;-145.06;0.00;60892.56;4848756;28;20821;-87
2022/01/16 11:17:26;;;;;;;27.25;15.23;;;;;;;-145.06;0.00;60892.56;4864700;28;20045;-88
2022/01/16 11:20:07;;;;;;;26.33;14.60;;;;;;;-145.06;0.00;60892.56;4852086;28;20065;-88
2022/01/16 11:25:38;;;;;;;25.52;14.95;;;;;;;5.33;0.00;60892.56;4849721;28;20033;-89
2022/01/16 11:28:21;;;;;;;26.80;14.77;;;;;;;5.34;0.00;60892.56;4867642;28;20037;-88
2022/01/16 11:31:04;;;;;;;29.17;15.57;;;;;;;5.37;0.00;60892.56;4853538;28;20376;-88
2022/01/16 11:33:43;;;;;;;24.08;12.95;;;;;;;5.45;0.00;60892.56;4851226;28;20033;-87
2022/01/16 11:36:25;;;;;;;26.73;14.13;;;;;;;-145.06;0.00;60892.56;4847453;28;20360;-88
2022/01/16 11:39:05;;;;;;;26.75;15.13;;;;;;;-145.06;0.00;60892.56;4853425;28;20037;-88
2022/01/16 11:41:55;;;;;;;26.92;15.27;;;;;;;-145.06;0.00;60892.56;4850100;28;20022;-88
2022/01/16 11:44:34;;;;;;;26.23;13.80;;;;;;;6.79;0.00;60892.56;4854479;28;20022;-88
2022/01/16 11:47:14;;;;;;;23.03;13.90;;;;;;;6.79;0.00;60892.56;4853585;28;20037;-88
2022/01/16 11:50:06;;;;;;;22.52;12.75;;;;;;;-145.06;0.00;60892.56;4852090;28;20268;-88
2022/01/16 11:52:47;;;;;;;21.98;12.30;;;;;;;6.79;0.00;60892.56;4852641;28;20029;-87
2022/01/16 11:55:34;;;;;;;25.70;14.00;;;;;;;-145.06;0.00;60892.56;4851314;28;20427;-87
2022/01/16 11:58:13;;;;;;;22.40;12.32;;;;;;;-145.06;0.00;60892.56;4850496;28;20061;-87
2022/01/16 12:00:52;;;;;;;22.30;12.13;;;;;;;-145.06;0.00;60892.56;4840934;28;20380;-88
2022/01/16 12:03:35;;;;;;;25.13;13.23;;;;;;;-145.06;0.00;60892.56;4864238;28;20276;-88
2022/01/16 12:06:33;;;;;;;23.02;13.48;;;;;;;8.08;0.00;60892.56;4854026;28;20029;-88
2022/01/16 12:09:35;;;;;;;24.40;13.50;;;;;;;-145.06;0.00;60892.56;4852565;28;20041;-88
2022/01/16 12:12:14;;;;;;;21.90;12.40;;;;;;;-145.06;0.00;60892.56;4850737;28;20033;-87
2022/01/16 12:14:59;;;;;;;23.27;13.45;;;;;;;-145.06;0.00;60892.56;4856220;28;20033;-88
2022/01/16 12:17:44;;;;;;;23.38;14.40;;;;;;;-145.06;0.00;60892.56;4864144;28;20030;-88
2022/01/16 12:20:30;;;;;;;22.65;12.88;;;;;;;-145.06;0.00;60892.56;4858767;28;20033;-88
2022/01/16 12:23:09;;;;;;;19.67;11.27;;;;;;;8.08;0.00;60892.56;4852195;28;20400;-88
2022/01/16 12:25:50;;;;;;;20.15;11.65;;;;;;;-145.06;0.00;60892.56;4846738;28;20112;-87
2022/01/16 12:28:31;;;;;;;19.60;11.23;;;;;;;-145.06;0.00;60892.56;4852108;28;20033;-88
2022/01/16 12:31:11;;;;;;;18.15;11.25;;;;;;;-145.06;0.00;60892.56;4852643;28;20376;-88
2022/01/16 12:33:53;;;;;;;19.63;11.40;;;;;;;-145.06;0.00;60892.56;4865195;28;20045;-88
2022/01/16 12:36:34;;;;;;;19.52;11.95;;;;;;;-145.06;0.00;60892.56;4864908;28;20647;-88
2022/01/16 12:39:13;;;;;;;21.23;11.60;;;;;;;-145.06;0.00;60892.56;4854603;28;20021;-89
2022/01/16 12:41:55;;;;;;;19.35;10.77;;;;;;;-145.06;0.00;60892.56;4859213;28;20029;-88
2022/01/16 12:44:39;;;;;;;16.52;9.77;;;;;;;-145.06;0.00;60892.56;4862687;28;20049;-88
2022/01/16 12:47:18;;;;;;;17.40;9.98;;;;;;;-145.06;0.00;60892.56;4845914;28;20034;-88
2022/01/16 12:50:11;;;;;;;16.33;9.65;;;;;;;-145.06;0.00;60892.56;4851053;28;20033;-90
2022/01/16 12:52:50;;;;;;;18.52;10.68;;;;;;;-145.06;0.00;60892.56;4854520;28;20029;-89
2022/01/16 12:55:31;;;;;;;18.65;10.68;;;;;;;-145.06;0.00;60892.56;4853606;28;20022;-89
2022/01/16 12:58:15;;;;;;;19.75;11.27;;;;;;;-145.06;0.00;60892.56;4867293;28;20038;-88
2022/01/16 13:01:04;;;;;;;17.85;10.95;;;;;;;-145.06;0.00;60892.56;4865577;28;20482;-89
2022/01/16 13:03:44;;;;;;;17.85;9.75;;;;;;;-145.06;0.00;60892.56;4852729;28;20021;-89
2022/01/16 13:06:25;;;;;;;;;;;;;;;-145.06;0.00;60892.56;4856303;28;20360;-89
2022/01/16 13:09:09;;;;;;;17.27;9.02;;;;;;;-145.06;0.00;60892.56;4852735;28;19960;-87
2022/01/16 13:11:52;;;;;;;14.82;8.55;;;;;;;-145.06;0.00;60892.56;4881434;28;20053;-89